Isle of Rum, United Kingdom
Current Conditions -  °F | °C
As of 9:20 AM on Saturday 25 Oct 2014 (Local Time) from EGPU Reporting Station
Scattered Clouds Scattered Clouds  
Wind Chill: 52°   Ceiling: Unl
Heat Index: 52°   Visibility: 6mi
Dew Point: 46°   Wind: 26mph
Humidity: 82%   Direction: 240°WSW
Pressure: 29.5"   Gusts: 38mph
Location:  57.01°N, 6.28°W
Report Text: EGPU 250820Z AUTO 24023G33KT 210V270 9999 FEW023/// SCT027/// 11/08 Q0999 RERA
Loading
Personal Weather Stations






























Interactive Weather Map New forecast layout! Learn more

10-Day Weather Forecast

Advertisements
Track Severe Weather on mobile